Time;durP1;ratioP1;P1;durP2;ratioP2;P2;SDS_P1;SDS_P2;PMS_P1;PMS_P2;Temp;Humidity;BMP_temperature;BMP_pressure;BME280_temperature;BME280_humidity;BME280_pressure;Samples;Min_cycle;Max_cycle;Signal;HPM_P1;HPM_P2
2022/12/01 00:00:19;;;;;;;1999.90;999.90;;;5.90;99.90;;;;;;5042626;28;20036;-67
2022/12/01 00:02:44;;;;;;;1999.90;999.90;;;5.90;99.90;;;;;;5025561;28;20049;-68
2022/12/01 00:05:10;;;;;;;1999.90;999.90;;;5.90;99.90;;;;;;5041393;28;20048;-68
2022/12/01 00:07:35;;;;;;;1999.90;999.90;;;5.90;99.90;;;;;;5043364;28;20064;-68
2022/12/01 00:12:45;;;;;;;1999.90;999.90;;;5.90;99.90;;;;;;5054198;28;20045;-68
2022/12/01 00:15:11;;;;;;;1999.90;999.90;;;5.90;99.90;;;;;;5044216;28;20043;-68
2022/12/01 00:17:37;;;;;;;1999.90;999.90;;;5.90;99.90;;;;;;5026223;28;20545;-68
2022/12/01 00:20:05;;;;;;;1999.90;999.90;;;5.90;99.90;;;;;;5047490;28;20033;-68
2022/12/01 00:22:30;;;;;;;1999.90;999.90;;;5.90;99.90;;;;;;5045470;28;20051;-68
2022/12/01 00:24:56;;;;;;;1999.90;999.90;;;5.90;99.90;;;;;;5047795;28;20037;-68
2022/12/01 00:27:21;;;;;;;1999.90;999.90;;;5.90;99.90;;;;;;5045966;28;20033;-68
2022/12/01 00:29:47;;;;;;;1999.90;999.90;;;5.90;99.90;;;;;;5030680;28;20049;-67
2022/12/01 00:32:13;;;;;;;1999.90;999.90;;;5.90;99.90;;;;;;5043364;28;20112;-68
2022/12/01 00:34:39;;;;;;;1999.90;999.90;;;5.90;99.90;;;;;;5045395;28;20052;-68
2022/12/01 00:37:05;;;;;;;1999.90;999.90;;;5.90;99.90;;;;;;5049398;28;20032;-68
2022/12/01 00:39:30;;;;;;;1999.90;999.90;;;5.90;99.90;;;;;;5030408;28;20393;-68
2022/12/01 00:41:56;;;;;;;1999.90;999.90;;;5.90;99.90;;;;;;5043877;28;20047;-68
2022/12/01 00:44:23;;;;;;;1999.90;999.90;;;5.90;99.90;;;;;;5046831;28;20056;-68
2022/12/01 00:46:48;;;;;;;1999.90;999.90;;;5.90;99.90;;;;;;5046322;28;20122;-68
2022/12/01 00:49:14;;;;;;;1999.90;999.90;;;5.90;99.90;;;;;;5043282;28;20072;-68
2022/12/01 00:51:40;;;;;;;1999.90;999.90;;;5.90;99.90;;;;;;5047212;28;20513;-68
2022/12/01 00:54:06;;;;;;;1999.90;999.90;;;5.90;99.90;;;;;;5045089;28;20028;-68
2022/12/01 00:56:31;;;;;;;1999.90;999.90;;;5.80;99.90;;;;;;5045198;28;20041;-68
2022/12/01 00:58:57;;;;;;;1999.90;999.90;;;5.80;99.90;;;;;;5045227;28;20036;-68
2022/12/01 01:01:22;;;;;;;1999.90;999.90;;;5.80;99.90;;;;;;5044765;28;20461;-67
2022/12/01 01:03:48;;;;;;;1999.90;999.90;;;5.80;99.90;;;;;;5047481;28;20036;-68
2022/12/01 01:06:14;;;;;;;1999.90;999.90;;;5.80;99.90;;;;;;5045449;28;20033;-68
2022/12/01 01:08:40;;;;;;;1999.90;999.90;;;5.80;99.90;;;;;;5046316;28;20041;-68
2022/12/01 01:11:07;;;;;;;1999.90;999.90;;;5.80;99.90;;;;;;5043947;28;20041;-68
2022/12/01 01:13:34;;;;;;;1999.90;999.90;;;5.80;99.90;;;;;;5043820;28;20064;-68
2022/12/01 01:16:12;;;;;;;1999.90;999.90;;;5.80;99.90;;;;;;5044945;28;20052;-68
2022/12/01 01:18:37;;;;;;;1999.90;999.90;;;5.80;99.90;;;;;;5026033;28;20412;-68
2022/12/01 01:21:06;;;;;;;1999.90;999.90;;;5.80;99.90;;;;;;5058119;28;20041;-68
2022/12/01 01:23:32;;;;;;;1999.90;999.90;;;5.80;99.90;;;;;;5045795;28;20128;-68
2022/12/01 01:26:06;;;;;;;1999.90;999.90;;;5.80;99.90;;;;;;5044550;28;20783;-68
2022/12/01 01:28:32;;;;;;;1999.90;999.90;;;5.80;99.90;;;;;;5044630;28;20041;-68
2022/12/01 01:30:58;;;;;;;1999.90;999.90;;;5.80;99.90;;;;;;5045837;28;20527;-68
2022/12/01 01:33:24;;;;;;;1999.90;999.90;;;5.80;99.90;;;;;;5045990;28;20131;-68
2022/12/01 01:35:50;;;;;;;1999.90;999.90;;;5.70;99.90;;;;;;5046890;28;20108;-68
2022/12/01 01:38:16;;;;;;;1999.90;999.90;;;5.80;99.90;;;;;;5045090;28;20041;-68
2022/12/01 01:40:45;;;;;;;1999.90;999.90;;;5.80;99.90;;;;;;5046151;28;20037;-67
2022/12/01 01:43:16;;;;;;;1999.90;999.90;;;5.80;99.90;;;;;;5041320;28;20537;-68
2022/12/01 01:45:42;;;;;;;1999.90;999.90;;;5.80;99.90;;;;;;5037458;28;20184;-68
2022/12/01 01:48:10;;;;;;;1999.90;999.90;;;5.80;99.90;;;;;;5043872;28;20144;-68
2022/12/01 01:50:36;;;;;;;1999.90;999.90;;;5.80;99.90;;;;;;5045851;28;20049;-68
2022/12/01 01:53:06;;;;;;;1999.90;999.90;;;5.80;99.90;;;;;;5028146;28;20398;-68
2022/12/01 01:55:33;;;;;;;1999.90;999.90;;;5.80;99.90;;;;;;5047924;28;20033;-68
2022/12/01 01:58:01;;;;;;;1999.90;999.90;;;5.80;99.90;;;;;;5039907;28;20101;-68
2022/12/01 02:00:27;;;;;;;1999.90;999.90;;;5.80;99.90;;;;;;5040624;28;20037;-68
2022/12/01 02:02:55;;;;;;;1999.90;999.90;;;5.80;99.90;;;;;;5046230;28;20051;-68
2022/12/01 02:05:29;;;;;;;1999.90;999.90;;;5.80;99.90;;;;;;5043995;28;20454;-68
2022/12/01 02:07:57;;;;;;;1999.90;999.90;;;5.80;99.90;;;;;;5060206;28;20776;-68
2022/12/01 02:11:00;;;;;;;1999.90;999.90;;;5.80;99.90;;;;;;5021343;28;20173;-68
2022/12/01 02:13:55;;;;;;;1999.90;999.90;;;5.80;99.90;;;;;;5040499;28;20084;-68
2022/12/01 02:17:00;;;;;;;1999.90;999.90;;;5.90;99.90;;;;;;5061375;28;20061;-68
2022/12/01 02:20:04;;;;;;;1999.90;999.90;;;5.90;99.90;;;;;;5038924;28;20044;-68
2022/12/01 02:23:06;;;;;;;1999.90;999.90;;;5.90;99.90;;;;;;5038092;28;20041;-67
2022/12/01 02:25:49;;;;;;;1999.90;999.90;;;5.90;99.90;;;;;;5044062;28;20433;-68
2022/12/01 02:28:25;;;;;;;1999.90;999.90;;;5.80;99.90;;;;;;5046878;28;20040;-68
2022/12/01 02:31:00;;;;;;;1999.90;999.90;;;5.80;99.90;;;;;;5044156;28;20498;-68
2022/12/01 02:33:32;;;;;;;1999.90;999.90;;;5.80;99.90;;;;;;5058819;28;20048;-68
2022/12/01 02:36:07;;;;;;;1999.90;999.90;;;5.80;99.90;;;;;;5045282;28;20075;-68
2022/12/01 02:38:50;;;;;;;1999.90;999.90;;;5.80;99.90;;;;;;5041064;28;20048;-68
2022/12/01 02:41:26;;;;;;;1999.90;999.90;;;5.80;99.90;;;;;;5042498;28;20058;-68
2022/12/01 02:44:04;;;;;;;1999.90;999.90;;;5.80;99.90;;;;;;5045171;28;20552;-68
2022/12/01 02:46:36;;;;;;;1999.90;999.90;;;5.80;99.90;;;;;;5044116;28;20459;-67
2022/12/01 02:49:08;;;;;;;1999.90;999.90;;;5.80;99.90;;;;;;5046301;28;20049;-67
2022/12/01 02:51:36;;;;;;;1999.90;999.90;;;5.80;99.90;;;;;;5043857;28;20045;-68
2022/12/01 02:54:03;;;;;;;1999.90;999.90;;;5.70;99.90;;;;;;5045733;28;20037;-68
2022/12/01 02:56:29;;;;;;;1999.90;999.90;;;5.70;99.90;;;;;;5043768;28;20041;-68
2022/12/01 02:58:55;;;;;;;1999.90;999.90;;;5.70;99.90;;;;;;5044563;28;20044;-68
2022/12/01 03:01:55;;;;;;;1999.90;999.90;;;5.70;99.90;;;;;;5040347;28;20152;-67
2022/12/01 03:04:45;;;;;;;1999.90;999.90;;;5.70;99.90;;;;;;5041999;28;20546;-67
2022/12/01 03:07:23;;;;;;;1999.90;999.90;;;5.70;99.90;;;;;;5059821;28;20355;-68
2022/12/01 03:10:10;;;;;;;1999.90;999.90;;;5.70;99.90;;;;;;5034884;28;20057;-69
2022/12/01 03:12:48;;;;;;;1999.90;999.90;;;5.70;99.90;;;;;;5020762;28;20052;-68
2022/12/01 03:15:26;;;;;;;1999.90;999.90;;;5.60;99.90;;;;;;5043281;28;20546;-68
2022/12/01 03:17:59;;;;;;;1999.90;999.90;;;5.60;99.90;;;;;;5024730;28;20072;-68
2022/12/01 03:20:32;;;;;;;1999.90;999.90;;;5.60;99.90;;;;;;5039231;28;20093;-68
2022/12/01 03:23:07;;;;;;;1999.90;999.90;;;5.60;99.90;;;;;;5042476;28;20436;-68
2022/12/01 03:25:33;;;;;;;1999.90;999.90;;;5.60;99.90;;;;;;5042571;28;20374;-68
2022/12/01 03:28:04;;;;;;;1999.90;999.90;;;5.60;99.90;;;;;;5041115;28;20037;-68
2022/12/01 03:30:33;;;;;;;1999.90;999.90;;;5.60;99.90;;;;;;5039402;28;20079;-68
2022/12/01 03:33:07;;;;;;;1999.90;999.90;;;5.60;99.90;;;;;;5045473;28;20436;-68
2022/12/01 03:35:45;;;;;;;1999.90;999.90;;;5.70;99.90;;;;;;5042200;28;20366;-68
2022/12/01 03:38:20;;;;;;;1999.90;999.90;;;5.70;99.90;;;;;;5043695;28;20036;-68
2022/12/01 03:40:49;;;;;;;1999.90;999.90;;;5.70;99.90;;;;;;5022934;28;20106;-68
2022/12/01 03:43:19;;;;;;;1999.90;999.90;;;5.70;99.90;;;;;;5043139;28;20037;-68
2022/12/01 03:46:00;;;;;;;1999.90;999.90;;;5.60;99.90;;;;;;5041698;28;20053;-68
2022/12/01 03:48:27;;;;;;;1999.90;999.90;;;5.70;99.90;;;;;;5058214;28;20098;-68
2022/12/01 03:51:13;;;;;;;1999.90;999.90;;;5.70;99.90;;;;;;5041582;28;20043;-68
2022/12/01 03:53:51;;;;;;;1999.90;999.90;;;5.70;99.90;;;;;;5043649;28;20045;-67
2022/12/01 03:56:23;;;;;;;1999.90;999.90;;;5.60;99.90;;;;;;5025507;28;20381;-68
2022/12/01 03:58:54;;;;;;;1999.90;999.90;;;5.70;99.90;;;;;;5041152;28;20044;-68
2022/12/01 04:01:21;;;;;;;1999.90;999.90;;;5.60;99.90;;;;;;5025762;28;20044;-68
2022/12/01 04:03:47;;;;;;;1999.90;999.90;;;5.60;99.90;;;;;;5045866;28;20052;-68
2022/12/01 04:06:12;;;;;;;1999.90;999.90;;;5.60;99.90;;;;;;5039923;28;20037;-68
2022/12/01 04:08:38;;;;;;;1999.90;999.90;;;5.60;99.90;;;;;;5043720;28;20032;-68
2022/12/01 04:12:28;;;;;;;1999.90;999.90;;;5.60;99.90;;;;;;5027058;28;20119;-68
2022/12/01 04:13:50;;;;;;;1999.90;999.90;;;5.60;99.90;;;;;;5037832;28;20045;-68
2022/12/01 04:16:15;;;;;;;1999.90;999.90;;;5.60;99.90;;;;;;5043245;28;20483;-68
2022/12/01 04:18:41;;;;;;;1999.90;999.90;;;5.60;99.90;;;;;;5040779;28;20960;-68
2022/12/01 04:21:07;;;;;;;1999.90;999.90;;;5.60;99.90;;;;;;5023010;28;20060;-68
2022/12/01 04:26:16;;;;;;;1999.90;999.90;;;5.60;99.90;;;;;;5044160;28;20048;-67
2022/12/01 04:28:42;;;;;;;1999.90;999.90;;;5.60;99.90;;;;;;5041606;28;20079;-68
2022/12/01 04:31:07;;;;;;;1999.90;999.90;;;5.60;99.90;;;;;;5044720;28;20041;-68
2022/12/01 04:33:33;;;;;;;1999.90;999.90;;;5.60;99.90;;;;;;5041705;28;20041;-68
2022/12/01 04:35:59;;;;;;;1999.90;999.90;;;5.60;99.90;;;;;;5041356;28;20037;-68
2022/12/01 04:38:25;;;;;;;1999.90;999.90;;;5.60;99.90;;;;;;5041877;28;20381;-68
2022/12/01 04:40:51;;;;;;;1999.90;999.90;;;5.60;99.90;;;;;;5042689;28;20440;-68
2022/12/01 04:43:16;;;;;;;1999.90;999.90;;;5.60;99.90;;;;;;5042777;28;20052;-68
2022/12/01 04:45:42;;;;;;;1999.90;999.90;;;5.60;99.90;;;;;;5044147;28;20053;-68
2022/12/01 04:48:07;;;;;;;1999.90;999.90;;;5.60;99.90;;;;;;5023461;28;20083;-68
2022/12/01 04:50:33;;;;;;;1999.90;999.90;;;5.60;99.90;;;;;;5043580;28;20139;-68
2022/12/01 04:52:58;;;;;;;1999.90;999.90;;;5.60;99.90;;;;;;5043164;28;20091;-68
2022/12/01 04:55:24;;;;;;;1999.90;999.90;;;5.60;99.90;;;;;;5041576;28;20041;-68
2022/12/01 04:57:50;;;;;;;1999.90;999.90;;;5.60;99.90;;;;;;5040228;28;20090;-68
2022/12/01 05:00:17;;;;;;;1999.90;999.90;;;5.60;99.90;;;;;;5020292;28;20040;-67
2022/12/01 05:02:43;;;;;;;1999.90;999.90;;;5.60;99.90;;;;;;5027810;28;20439;-68
2022/12/01 05:05:12;;;;;;;1999.90;999.90;;;5.60;99.90;;;;;;5047379;28;20048;-68
2022/12/01 05:07:39;;;;;;;1999.90;999.90;;;5.60;99.90;;;;;;5045712;28;20403;-68
2022/12/01 05:10:05;;;;;;;1999.90;999.90;;;5.60;99.90;;;;;;5042558;28;20040;-68
2022/12/01 05:12:31;;;;;;;1999.90;999.90;;;5.60;99.90;;;;;;5046699;28;20132;-68
2022/12/01 05:14:56;;;;;;;1999.90;999.90;;;5.60;99.90;;;;;;5051353;28;20055;-68
2022/12/01 05:17:22;;;;;;;1999.90;999.90;;;5.60;99.90;;;;;;5034764;28;20041;-67
2022/12/01 05:22:31;;;;;;;1999.90;999.90;;;5.60;99.90;;;;;;5044219;28;20048;-67
2022/12/01 05:24:57;;;;;;;1999.90;999.90;;;5.60;99.90;;;;;;5043987;28;20047;-68
2022/12/01 05:27:23;;;;;;;1999.90;999.90;;;5.50;99.90;;;;;;5042325;28;20045;-68
2022/12/01 05:29:48;;;;;;;1999.90;999.90;;;5.50;99.90;;;;;;5044474;28;20044;-68
2022/12/01 05:32:14;;;;;;;1999.90;999.90;;;5.40;99.90;;;;;;5042112;28;20041;-68
2022/12/01 05:34:39;;;;;;;1999.90;999.90;;;5.30;99.90;;;;;;5042711;28;20501;-68
2022/12/01 05:37:05;;;;;;;1999.90;999.90;;;5.20;99.90;;;;;;5041721;28;20040;-67
2022/12/01 05:39:30;;;;;;;1999.90;999.90;;;5.20;99.90;;;;;;5041300;28;20106;-67
2022/12/01 05:41:56;;;;;;;1999.90;999.90;;;5.10;99.90;;;;;;5043656;28;20051;-68
2022/12/01 05:44:22;;;;;;;1999.90;999.90;;;4.90;99.90;;;;;;5046693;28;20041;-68
2022/12/01 05:46:47;;;;;;;1999.90;999.90;;;4.80;99.90;;;;;;5045453;28;20057;-68
2022/12/01 05:49:13;;;;;;;1999.90;999.90;;;4.70;99.90;;;;;;5044858;28;20048;-68
2022/12/01 05:51:38;;;;;;;1999.90;999.90;;;4.60;99.90;;;;;;5028564;28;20091;-68
2022/12/01 05:54:04;;;;;;;1999.90;999.90;;;4.50;99.90;;;;;;5044100;28;20107;-68
2022/12/01 05:56:29;;;;;;;1999.90;999.90;;;4.50;99.90;;;;;;5045696;28;20044;-68
2022/12/01 05:58:55;;;;;;;1999.90;999.90;;;4.40;99.90;;;;;;5044653;28;20476;-68
2022/12/01 06:01:21;;;;;;;1999.90;999.90;;;4.30;99.90;;;;;;5023668;28;20087;-68
2022/12/01 06:03:46;;;;;;;1999.90;999.90;;;4.20;99.90;;;;;;5044663;28;20124;-68
2022/12/01 06:06:12;;;;;;;1999.90;999.90;;;4.20;99.90;;;;;;5046560;28;20025;-68
2022/12/01 06:08:38;;;;;;;1999.90;999.90;;;4.10;99.90;;;;;;5045613;28;20040;-68
2022/12/01 06:11:03;;;;;;;1999.90;999.90;;;4.10;99.90;;;;;;5028747;28;20052;-68
2022/12/01 06:13:29;;;;;;;1999.90;999.90;;;3.90;99.90;;;;;;5042945;28;20067;-68
2022/12/01 06:15:56;;;;;;;1999.90;999.90;;;3.90;99.90;;;;;;5044318;28;20072;-68
2022/12/01 06:18:23;;;;;;;1999.90;999.90;;;3.90;99.90;;;;;;5042580;28;20064;-68
2022/12/01 06:20:48;;;;;;;1999.90;999.90;;;3.80;99.90;;;;;;5042974;28;20102;-68
2022/12/01 06:23:14;;;;;;;1999.90;999.90;;;3.80;99.90;;;;;;5026832;28;20447;-68
2022/12/01 06:25:39;;;;;;;1999.90;999.90;;;3.70;99.90;;;;;;5042683;28;20051;-68
2022/12/01 06:28:05;;;;;;;1999.90;999.90;;;3.70;99.90;;;;;;5046258;28;20037;-68
2022/12/01 06:30:30;;;;;;;1999.90;999.90;;;3.60;99.90;;;;;;5047180;28;20052;-68
2022/12/01 06:32:56;;;;;;;1999.90;999.90;;;3.60;99.90;;;;;;5045257;28;20480;-68
2022/12/01 06:35:22;;;;;;;1999.90;999.90;;;3.50;99.90;;;;;;5044684;28;20041;-68
2022/12/01 06:37:47;;;;;;;1999.90;999.90;;;3.50;99.90;;;;;;5044393;28;20124;-68
2022/12/01 06:40:13;;;;;;;1999.90;999.90;;;3.50;99.90;;;;;;5044678;28;20033;-68
2022/12/01 06:42:39;;;;;;;1999.90;999.90;;;3.40;99.90;;;;;;5045034;28;20045;-68
2022/12/01 06:45:05;;;;;;;1999.90;999.90;;;3.30;99.90;;;;;;5041944;28;20535;-67
2022/12/01 06:47:30;;;;;;;1999.90;999.90;;;3.20;99.90;;;;;;5045851;28;20131;-67
2022/12/01 06:49:56;;;;;;;1999.90;999.90;;;3.20;99.90;;;;;;5044186;28;20037;-67
2022/12/01 06:52:21;;;;;;;1999.90;999.90;;;3.10;99.90;;;;;;5044776;28;20389;-67
2022/12/01 06:54:47;;;;;;;1999.90;999.90;;;3.10;99.90;;;;;;5045515;28;20040;-67
2022/12/01 06:57:12;;;;;;;1999.90;999.90;;;3.10;99.90;;;;;;5045626;28;20117;-68
2022/12/01 06:59:38;;;;;;;1999.90;999.90;;;3.00;99.90;;;;;;5028419;28;20032;-68
2022/12/01 07:02:03;;;;;;;1999.90;999.90;;;3.00;99.90;;;;;;5044991;28;20637;-68
2022/12/01 07:04:29;;;;;;;1999.90;999.90;;;3.00;99.90;;;;;;5043668;28;20045;-68
2022/12/01 07:06:55;;;;;;;1999.90;999.90;;;2.90;99.90;;;;;;5043239;28;20156;-68
2022/12/01 07:09:21;;;;;;;1999.90;999.90;;;2.80;99.90;;;;;;5026645;28;20041;-68
2022/12/01 07:11:46;;;;;;;1999.90;999.90;;;2.80;99.90;;;;;;5044076;28;20456;-67
2022/12/01 07:14:23;;;;;;;1999.90;999.90;;;2.60;99.90;;;;;;5042416;28;20045;-68
2022/12/01 07:16:49;;;;;;;1999.90;999.90;;;2.60;99.90;;;;;;5042202;28;20043;-68
2022/12/01 07:19:14;;;;;;;1999.90;999.90;;;2.50;99.90;;;;;;5043032;28;20198;-67
2022/12/01 07:21:40;;;;;;;1999.90;999.90;;;2.50;99.90;;;;;;5058908;28;20105;-68
2022/12/01 07:24:06;;;;;;;1999.90;999.90;;;2.40;99.90;;;;;;5041669;28;20044;-67
2022/12/01 07:26:32;;;;;;;1999.90;999.90;;;2.50;99.90;;;;;;5043980;28;20040;-68
2022/12/01 07:28:57;;;;;;;1999.90;999.90;;;2.40;99.90;;;;;;5023660;28;20037;-68
2022/12/01 07:31:23;;;;;;;1999.90;999.90;;;2.40;99.90;;;;;;5045990;28;20045;-68
2022/12/01 07:33:48;;;;;;;1999.90;999.90;;;2.40;99.90;;;;;;5043401;28;20507;-67
2022/12/01 07:36:14;;;;;;;1999.90;999.90;;;2.40;99.90;;;;;;5045040;28;20126;-68
2022/12/01 07:38:40;;;;;;;1999.90;999.90;;;2.40;99.90;;;;;;5043597;28;20049;-68
2022/12/01 07:41:07;;;;;;;1999.90;999.90;;;2.40;99.90;;;;;;5045264;28;20442;-68
2022/12/01 07:43:34;;;;;;;1999.90;999.90;;;2.40;99.90;;;;;;5044647;28;20120;-67
2022/12/01 07:46:07;;;;;;;1999.90;999.90;;;2.40;99.90;;;;;;5024375;28;20056;-67
2022/12/01 07:48:34;;;;;;;1999.90;999.90;;;2.40;99.90;;;;;;5028024;28;20048;-68
2022/12/01 07:50:59;;;;;;;1999.90;999.90;;;2.30;99.90;;;;;;5045102;28;20136;-67
2022/12/01 07:53:25;;;;;;;1999.90;999.90;;;2.30;99.90;;;;;;5045250;28;20127;-68
2022/12/01 07:55:50;;;;;;;1999.90;999.90;;;2.30;99.90;;;;;;5045400;28;20044;-67
2022/12/01 07:58:16;;;;;;;1999.90;999.90;;;2.30;99.90;;;;;;5043839;28;20033;-67
2022/12/01 08:00:42;;;;;;;1999.90;999.90;;;2.40;99.90;;;;;;5044900;28;20043;-67
2022/12/01 08:03:07;;;;;;;1999.90;999.90;;;2.40;99.90;;;;;;5045117;28;20045;-68
2022/12/01 08:05:33;;;;;;;1999.90;999.90;;;2.50;99.90;;;;;;5044489;28;20042;-67
2022/12/01 08:07:59;;;;;;;1999.90;999.90;;;2.50;99.90;;;;;;5044496;28;20039;-68
2022/12/01 08:10:24;;;;;;;1999.90;999.90;;;2.60;99.90;;;;;;5043151;28;20110;-67
2022/12/01 08:12:50;;;;;;;1999.90;999.90;;;2.60;99.90;;;;;;5026625;28;20040;-67
2022/12/01 08:15:15;;;;;;;1999.90;999.90;;;2.60;99.90;;;;;;5027814;28;20033;-67
2022/12/01 08:17:41;;;;;;;1999.90;999.90;;;2.70;99.90;;;;;;5043892;28;20116;-68
2022/12/01 08:20:07;;;;;;;1999.90;999.90;;;2.70;99.90;;;;;;5026498;28;20558;-68
2022/12/01 08:22:33;;;;;;;1999.90;999.90;;;2.80;99.90;;;;;;5045016;28;20064;-67
2022/12/01 08:24:58;;;;;;;1999.90;999.90;;;2.90;99.90;;;;;;5044831;28;20619;-67
2022/12/01 08:27:24;;;;;;;1999.90;999.90;;;3.00;99.90;;;;;;5042917;28;20043;-67
2022/12/01 08:29:50;;;;;;;1999.90;999.90;;;3.10;99.90;;;;;;5026852;28;20489;-68
2022/12/01 08:32:17;;;;;;;1999.90;999.90;;;3.10;99.90;;;;;;5045603;28;20103;-68
2022/12/01 08:34:42;;;;;;;1999.90;999.90;;;3.20;99.90;;;;;;5044354;28;20029;-67
2022/12/01 08:37:08;;;;;;;1999.90;999.90;;;3.20;99.90;;;;;;5029289;28;20501;-68
2022/12/01 08:39:33;;;;;;;1999.90;999.90;;;3.10;99.90;;;;;;5044627;28;20053;-68
2022/12/01 08:41:59;;;;;;;1999.90;999.90;;;3.10;99.90;;;;;;5044860;28;20054;-67
2022/12/01 08:44:25;;;;;;;1999.90;999.90;;;3.30;99.90;;;;;;5047849;28;20109;-67
2022/12/01 08:46:51;;;;;;;1999.90;999.90;;;3.50;99.90;;;;;;5043184;28;20061;-67
2022/12/01 08:49:16;;;;;;;1999.90;999.90;;;3.70;99.90;;;;;;5028422;28;20044;-67
2022/12/01 08:51:42;;;;;;;1999.90;999.90;;;3.90;99.90;;;;;;5046455;28;20037;-68
2022/12/01 08:54:10;;;;;;;1999.90;999.90;;;4.10;99.90;;;;;;5029596;28;20044;-68
2022/12/01 08:56:41;;;;;;;1999.90;999.90;;;4.40;99.90;;;;;;5046775;28;20480;-68
2022/12/01 08:59:07;;;;;;;1999.90;999.90;;;4.60;99.90;;;;;;5049456;28;20171;-68
2022/12/01 09:01:34;;;;;;;1999.90;999.90;;;4.60;99.90;;;;;;5046379;28;20040;-68
2022/12/01 09:04:04;;;;;;;1999.90;999.90;;;4.50;99.90;;;;;;5048629;28;20033;-67
2022/12/01 09:06:31;;;;;;;1999.90;999.90;;;4.70;99.90;;;;;;5044986;28;20037;-67
2022/12/01 09:09:00;;;;;;;1999.90;999.90;;;4.90;99.90;;;;;;5028968;28;20539;-68
2022/12/01 09:11:26;;;;;;;1999.90;999.90;;;5.20;99.90;;;;;;5028978;28;20041;-68
2022/12/01 09:13:51;;;;;;;1999.90;999.90;;;5.50;99.90;;;;;;5049054;28;20045;-68
2022/12/01 09:16:17;;;;;;;1999.90;999.90;;;5.70;99.90;;;;;;5043570;28;20494;-68
2022/12/01 09:18:44;;;;;;;1999.90;999.90;;;5.80;99.90;;;;;;5049112;28;20037;-68
2022/12/01 09:21:20;;;;;;;1999.90;999.90;;;5.80;99.90;;;;;;5047219;28;20094;-68
2022/12/01 09:23:46;;;;;;;1999.90;999.90;;;5.90;99.90;;;;;;5047049;28;20040;-68
2022/12/01 09:26:17;;;;;;;1999.90;999.90;;;6.00;99.90;;;;;;5036255;28;20052;-68
2022/12/01 09:28:42;;;;;;;1999.90;999.90;;;6.10;99.90;;;;;;5027814;28;20436;-67
2022/12/01 09:31:10;;;;;;;1999.90;999.90;;;6.20;99.90;;;;;;5043926;28;20036;-68
2022/12/01 09:33:37;;;;;;;1999.90;999.90;;;6.30;99.90;;;;;;5041885;28;20091;-68
2022/12/01 09:36:04;;;;;;;1999.90;999.90;;;6.40;99.90;;;;;;5044517;28;20041;-68
2022/12/01 09:38:31;;;;;;;1999.90;999.90;;;6.50;99.90;;;;;;5045308;28;20044;-68
2022/12/01 09:41:01;;;;;;;1999.90;999.90;;;6.60;99.90;;;;;;5043116;28;20047;-68
2022/12/01 09:43:31;;;;;;;1999.90;999.90;;;6.70;99.90;;;;;;5044836;28;20047;-68
2022/12/01 09:46:04;;;;;;;1999.90;999.90;;;6.80;99.90;;;;;;5027241;28;20489;-67
2022/12/01 09:48:41;;;;;;;1999.90;999.90;;;6.80;99.90;;;;;;5044681;28;20586;-68
2022/12/01 09:51:22;;;;;;;1999.90;999.90;;;6.90;99.90;;;;;;5044039;28;20029;-68
2022/12/01 09:53:50;;;;;;;1999.90;999.90;;;7.00;99.90;;;;;;5045367;28;20451;-68
2022/12/01 09:56:25;;;;;;;1999.90;999.90;;;7.00;99.90;;;;;;5030099;28;20053;-68
2022/12/01 09:59:06;;;;;;;1999.90;999.90;;;7.10;99.90;;;;;;5048482;28;20065;-68
2022/12/01 10:01:43;;;;;;;1999.90;999.90;;;7.10;99.90;;;;;;5046474;28;20141;-68
2022/12/01 10:04:37;;;;;;;1999.90;999.90;;;7.30;99.90;;;;;;5027445;28;20389;-68
2022/12/01 10:07:27;;;;;;;1999.90;999.90;;;7.40;99.90;;;;;;5039688;28;20099;-68
2022/12/01 10:09:59;;;;;;;1999.90;999.90;;;7.50;99.90;;;;;;5042413;28;20040;-68
2022/12/01 10:12:29;;;;;;;;;;;7.50;99.90;;;;;;5040140;28;20601;-68
2022/12/01 10:15:20;;;;;;;1999.90;999.90;;;7.60;99.90;;;;;;5031111;28;19927;-68
2022/12/01 10:18:21;;;;;;;1999.90;999.90;;;7.60;99.90;;;;;;5050598;28;20052;-68
2022/12/01 10:20:59;;;;;;;1999.90;999.90;;;7.70;99.90;;;;;;5026937;28;20040;-67
2022/12/01 10:23:35;;;;;;;1999.90;999.90;;;7.80;99.90;;;;;;5040651;28;20071;-68
2022/12/01 10:26:30;;;;;;;1999.90;999.90;;;7.80;99.90;;;;;;5045284;28;20080;-68
2022/12/01 10:28:58;;;;;;;1999.90;999.90;;;7.90;99.90;;;;;;5039794;28;20055;-68
2022/12/01 10:31:37;;;;;;;1999.90;999.90;;;8.00;99.90;;;;;;5045942;28;20048;-67
2022/12/01 10:34:14;;;;;;;1999.90;999.90;;;8.00;99.90;;;;;;5044200;28;20504;-67
2022/12/01 10:36:40;;;;;;;1999.90;999.90;;;8.10;99.90;;;;;;5044144;28;20033;-67
2022/12/01 10:39:09;;;;;;;1999.90;999.90;;;8.10;99.90;;;;;;5046246;28;20404;-68
2022/12/01 10:41:37;;;;;;;1999.90;999.90;;;8.20;99.90;;;;;;5044860;28;20079;-67
2022/12/01 10:44:04;;;;;;;1999.90;999.90;;;8.10;99.90;;;;;;5047720;28;20120;-67
2022/12/01 10:46:50;;;;;;;1999.90;999.90;;;8.10;99.90;;;;;;5047044;28;20107;-68
2022/12/01 10:49:18;;;;;;;1999.90;999.90;;;8.20;99.90;;;;;;5045963;28;20485;-68
2022/12/01 10:51:46;;;;;;;1999.90;999.90;;;8.20;99.90;;;;;;5047855;28;20041;-68
2022/12/01 10:54:12;;;;;;;1999.90;999.90;;;8.20;99.90;;;;;;5044693;28;20327;-67
2022/12/01 10:56:44;;;;;;;1999.90;999.90;;;8.20;99.90;;;;;;5044414;28;20378;-67
2022/12/01 10:59:23;;;;;;;1999.90;999.90;;;8.20;99.90;;;;;;5028331;28;20139;-67
2022/12/01 11:01:49;;;;;;;1999.90;999.90;;;8.20;99.90;;;;;;5045869;28;20439;-67
2022/12/01 11:04:33;;;;;;;1999.90;999.90;;;8.30;99.90;;;;;;5045978;28;20045;-68
2022/12/01 11:07:00;;;;;;;1999.90;999.90;;;8.30;99.90;;;;;;5027191;28;20041;-67
2022/12/01 11:09:29;;;;;;;1999.90;999.90;;;8.20;99.90;;;;;;5044673;28;20048;-68
2022/12/01 11:12:01;;;;;;;1999.90;999.90;;;8.30;99.90;;;;;;5041571;28;20048;-68
2022/12/01 11:14:50;;;;;;;1999.90;999.90;;;8.30;99.90;;;;;;5040683;28;20072;-67
2022/12/01 11:17:38;;;;;;;1999.90;999.90;;;8.30;99.90;;;;;;5037948;28;20037;-67
2022/12/01 11:20:35;;;;;;;1999.90;999.90;;;8.40;99.90;;;;;;5042804;28;20101;-67
2022/12/01 11:23:23;;;;;;;1999.90;999.90;;;8.40;99.90;;;;;;5039627;28;20052;-67
2022/12/01 11:26:05;;;;;;;1999.90;999.90;;;8.40;99.90;;;;;;5044615;28;20386;-67
2022/12/01 11:28:32;;;;;;;1999.90;999.90;;;8.50;99.90;;;;;;5040653;28;20059;-67
2022/12/01 11:31:01;;;;;;;1999.90;999.90;;;8.50;99.90;;;;;;5042161;28;20067;-68
2022/12/01 11:33:28;;;;;;;1999.90;999.90;;;8.60;99.90;;;;;;5020558;28;20115;-67
2022/12/01 11:35:54;;;;;;;1999.90;999.90;;;8.50;99.90;;;;;;5043695;28;20429;-67
2022/12/01 11:38:22;;;;;;;1999.90;999.90;;;8.30;99.90;;;;;;5044366;28;20045;-68
2022/12/01 11:40:52;;;;;;;1999.90;999.90;;;8.20;99.90;;;;;;5043817;28;20102;-67
2022/12/01 11:43:27;;;;;;;1999.90;999.90;;;8.00;99.90;;;;;;5025851;28;20052;-67
2022/12/01 11:45:54;;;;;;;1999.90;999.90;;;8.10;99.90;;;;;;5043776;28;20692;-67
2022/12/01 11:48:19;;;;;;;1999.90;999.90;;;8.10;99.90;;;;;;5039067;28;20071;-67
2022/12/01 11:51:08;;;;;;;1999.90;999.90;;;8.20;99.90;;;;;;5041246;28;20544;-68
2022/12/01 11:53:41;;;;;;;1999.90;999.90;;;8.40;99.90;;;;;;5035195;28;20041;-67
2022/12/01 11:56:22;;;;;;;1999.90;999.90;;;8.40;99.90;;;;;;5041015;28;20044;-68
2022/12/01 11:59:11;;;;;;;1999.90;999.90;;;8.40;99.90;;;;;;5040470;28;20091;-67
2022/12/01 12:01:46;;;;;;;1999.90;999.90;;;8.40;99.90;;;;;;5056915;28;20071;-67
2022/12/01 12:04:31;;;;;;;1999.90;999.90;;;8.50;99.90;;;;;;5041210;28;20043;-67
2022/12/01 12:07:24;;;;;;;1999.90;999.90;;;8.40;99.90;;;;;;5040943;28;20737;-67
2022/12/01 12:09:52;;;;;;;1999.90;999.90;;;8.40;99.90;;;;;;5057239;28;20076;-67
2022/12/01 12:12:27;;;;;;;1999.90;999.90;;;8.40;99.90;;;;;;5029380;28;20520;-68
2022/12/01 12:15:12;;;;;;;1999.90;999.90;;;8.40;99.90;;;;;;5044880;28;20048;-67
2022/12/01 12:17:58;;;;;;;1999.90;999.90;;;8.50;99.90;;;;;;5043728;28;20103;-67
2022/12/01 12:20:30;;;;;;;1999.90;999.90;;;8.50;99.90;;;;;;5061406;28;20945;-67
2022/12/01 12:23:07;;;;;;;1999.90;999.90;;;8.50;99.90;;;;;;5039404;28;20052;-67
2022/12/01 12:25:46;;;;;;;1999.90;999.90;;;8.40;99.90;;;;;;5049130;28;20571;-67
2022/12/01 12:28:42;;;;;;;1999.90;999.90;;;8.40;99.90;;;;;;5046279;28;20424;-67
2022/12/01 12:31:12;;;;;;;1999.90;999.90;;;8.40;99.90;;;;;;5039684;28;20087;-67